Time;durP1;ratioP1;P1;durP2;ratioP2;P2;SDS_P1;SDS_P2;PMS_P1;PMS_P2;Temp;Humidity;BMP_temperature;BMP_pressure;BME280_temperature;BME280_humidity;BME280_pressure;Samples;Min_cycle;Max_cycle;Signal;HPM_P1;HPM_P2
2022/07/20 00:00:42;;;;;;;;;;;27.70;63.50;;;;;;5115040;28;19912;-58
2022/07/20 00:03:09;;;;;;;;;;;27.60;61.40;;;;;;5115440;28;19926;-58
2022/07/20 00:05:35;;;;;;;;;;;27.50;61.70;;;;;;5096131;28;19930;-58
2022/07/20 00:08:01;;;;;;;;;;;27.50;63.10;;;;;;5097827;28;19963;-55
2022/07/20 00:13:11;;;;;;;;;;;27.40;64.30;;;;;;5097935;28;19916;-58
2022/07/20 00:15:36;;;;;;;;;;;27.40;64.60;;;;;;5095860;28;20022;-55
2022/07/20 00:18:02;;;;;;;;;;;27.30;64.30;;;;;;5096609;28;19987;-55
2022/07/20 00:20:27;;;;;;;;;;;27.30;64.30;;;;;;5115734;28;19919;-57
2022/07/20 00:22:53;;;;;;;;;;;27.30;64.70;;;;;;5115560;28;20335;-55
2022/07/20 00:25:19;;;;;;;;;;;27.20;63.70;;;;;;5115204;28;19951;-57
2022/07/20 00:27:44;;;;;;;;;;;27.10;62.80;;;;;;5115143;28;19916;-58
2022/07/20 00:30:11;;;;;;;;;;;27.10;63.70;;;;;;5097058;28;20352;-58
2022/07/20 00:32:37;;;;;;;;;;;27.00;64.80;;;;;;5114384;28;19911;-57
2022/07/20 00:35:04;;;;;;;;;;;27.00;65.20;;;;;;5114352;28;19912;-58
2022/07/20 00:37:30;;;;;;;;;;;26.90;65.20;;;;;;5114775;28;19927;-57
2022/07/20 00:39:55;;;;;;;;;;;26.70;65.60;;;;;;5114290;28;19920;-54
2022/07/20 00:42:21;;;;;;;;;;;26.60;66.10;;;;;;5115505;28;19951;-58
2022/07/20 00:44:46;;;;;;;;;;;26.60;67.10;;;;;;5107058;28;20003;-55
2022/07/20 00:47:12;;;;;;;;;;;26.60;66.50;;;;;;5096237;28;20274;-55
2022/07/20 00:49:38;;;;;;;;;;;26.50;65.10;;;;;;5096316;28;19947;-55
2022/07/20 00:52:03;;;;;;;;;;;26.40;66.70;;;;;;5115463;28;20291;-57
2022/07/20 00:54:29;;;;;;;;;;;26.40;67.50;;;;;;5114719;28;19912;-55
2022/07/20 00:56:55;;;;;;;;;;;26.40;67.70;;;;;;5114021;28;19911;-57
2022/07/20 00:59:20;;;;;;;;;;;26.40;67.70;;;;;;5114143;28;19915;-54
2022/07/20 01:01:46;;;;;;;;;;;26.40;68.20;;;;;;5096016;28;19911;-58
2022/07/20 01:04:11;;;;;;;;;;;26.30;68.60;;;;;;5114475;28;20101;-54
2022/07/20 01:06:37;;;;;;;;;;;26.20;68.90;;;;;;5096706;28;20361;-57
2022/07/20 01:09:03;;;;;;;;;;;26.10;68.90;;;;;;5114803;28;19922;-56
2022/07/20 01:11:29;;;;;;;;;;;26.20;68.90;;;;;;5097105;28;19969;-56
2022/07/20 01:14:04;;;;;;;;;;;26.20;68.90;;;;;;5113709;28;19938;-56
2022/07/20 01:16:30;;;;;;;;;;;26.20;68.70;;;;;;5075747;28;19916;-54
2022/07/20 01:18:56;;;;;;;;;;;26.20;68.60;;;;;;5094925;28;19973;-55
2022/07/20 01:21:21;;;;;;;;;;;26.30;68.20;;;;;;5113977;28;19912;-55
2022/07/20 01:23:47;;;;;;;;;;;26.20;67.90;;;;;;5113228;28;19938;-55
2022/07/20 01:26:15;;;;;;;;;;;26.20;67.30;;;;;;5113891;28;20331;-55
2022/07/20 01:28:40;;;;;;;;;;;26.20;67.00;;;;;;5095885;28;19958;-55
2022/07/20 01:31:06;;;;;;;;;;;26.00;67.10;;;;;;5114205;28;19912;-55
2022/07/20 01:33:31;;;;;;;;;;;26.10;69.50;;;;;;5113592;28;19923;-54
2022/07/20 01:35:57;;;;;;;;;;;26.10;71.00;;;;;;5113865;28;19922;-53
2022/07/20 01:38:22;;;;;;;;;;;26.10;72.10;;;;;;5113423;28;19916;-56
2022/07/20 01:40:48;;;;;;;;;;;26.00;72.20;;;;;;5113206;28;19957;-56
2022/07/20 01:43:14;;;;;;;;;;;25.90;72.10;;;;;;5116375;27;19911;-56
2022/07/20 01:45:39;;;;;;;;;;;25.80;72.00;;;;;;5133697;27;19963;-55
2022/07/20 01:48:05;;;;;;;;;;;25.70;72.10;;;;;;5126398;27;20417;-57
2022/07/20 01:50:31;;;;;;;;;;;25.50;70.50;;;;;;5114110;28;19916;-57
2022/07/20 01:52:56;;;;;;;;;;;25.40;70.50;;;;;;5113198;28;19916;-57
2022/07/20 01:55:22;;;;;;;;;;;25.40;70.30;;;;;;5114860;28;19920;-56
2022/07/20 01:57:47;;;;;;;;;;;25.40;70.40;;;;;;5095046;28;19912;-54
2022/07/20 02:00:13;;;;;;;;;;;25.40;70.30;;;;;;5114116;28;19914;-57
2022/07/20 02:02:40;;;;;;;;;;;25.40;69.90;;;;;;5113500;28;19907;-58
2022/07/20 02:05:06;;;;;;;;;;;25.40;70.30;;;;;;5114720;28;19918;-53
2022/07/20 02:07:32;;;;;;;;;;;25.40;70.00;;;;;;5114691;28;20183;-52
2022/07/20 02:09:57;;;;;;;;;;;25.40;70.40;;;;;;5114917;28;19938;-50
2022/07/20 02:12:23;;;;;;;;;;;25.50;70.90;;;;;;5113642;28;19955;-55
2022/07/20 02:14:48;;;;;;;;;;;25.40;70.80;;;;;;5114460;28;19911;-52
2022/07/20 02:17:14;;;;;;;;;;;25.30;70.40;;;;;;5113769;28;20089;-50
2022/07/20 02:19:39;;;;;;;;;;;25.30;70.50;;;;;;5113214;28;20375;-51
2022/07/20 02:22:05;;;;;;;;;;;25.30;69.90;;;;;;5112918;28;19915;-53
2022/07/20 02:24:30;;;;;;;;;;;25.30;71.20;;;;;;5112823;28;19919;-50
2022/07/20 02:26:56;;;;;;;;;;;25.20;70.40;;;;;;5094474;28;19915;-47
2022/07/20 02:29:21;;;;;;;;;;;25.10;70.60;;;;;;5112939;28;19919;-52
2022/07/20 02:31:47;;;;;;;;;;;25.10;71.00;;;;;;5112855;28;19919;-55
2022/07/20 02:34:13;;;;;;;;;;;25.00;72.00;;;;;;5113504;28;19927;-51
2022/07/20 02:36:39;;;;;;;;;;;25.00;72.90;;;;;;5113261;28;20196;-52
2022/07/20 02:39:05;;;;;;;;;;;24.90;73.80;;;;;;5113709;28;19907;-53
2022/07/20 02:41:32;;;;;;;;;;;24.90;73.90;;;;;;5114008;28;19922;-50
2022/07/20 02:43:58;;;;;;;;;;;24.90;73.70;;;;;;5123229;28;19965;-50
2022/07/20 02:46:24;;;;;;;;;;;24.90;74.10;;;;;;5128002;28;19911;-52
2022/07/20 02:48:49;;;;;;;;;;;24.80;74.60;;;;;;5114749;28;19908;-57
2022/07/20 02:51:15;;;;;;;;;;;24.80;75.30;;;;;;5114967;28;20279;-49
2022/07/20 02:53:40;;;;;;;;;;;24.70;75.50;;;;;;5116527;28;20294;-52
2022/07/20 02:56:06;;;;;;;;;;;24.70;72.10;;;;;;5116684;28;19927;-54
2022/07/20 02:58:31;;;;;;;;;;;24.50;70.10;;;;;;5117126;28;20351;-51
2022/07/20 03:00:57;;;;;;;;;;;24.30;70.60;;;;;;5117360;28;19918;-48
2022/07/20 03:03:23;;;;;;;;;;;24.20;72.70;;;;;;5117614;28;20363;-52
2022/07/20 03:05:48;;;;;;;;;;;24.20;73.60;;;;;;5117198;28;20363;-57
2022/07/20 03:08:14;;;;;;;;;;;24.10;72.00;;;;;;5116819;28;19953;-55
2022/07/20 03:10:39;;;;;;;;;;;24.10;72.50;;;;;;5117682;28;20377;-50
2022/07/20 03:13:05;;;;;;;;;;;24.10;72.70;;;;;;5098252;28;19966;-50
2022/07/20 03:15:31;;;;;;;;;;;24.10;73.40;;;;;;5110349;28;19961;-51
2022/07/20 03:17:57;;;;;;;;;;;24.10;73.40;;;;;;5119845;27;20402;-55
2022/07/20 03:20:24;;;;;;;;;;;24.10;73.40;;;;;;5117691;28;20448;-54
2022/07/20 03:22:50;;;;;;;;;;;24.10;72.30;;;;;;5116990;28;19919;-50
2022/07/20 03:25:16;;;;;;;;;;;24.00;75.30;;;;;;5116325;28;19911;-48
2022/07/20 03:27:41;;;;;;;;;;;24.00;76.50;;;;;;5098210;28;19915;-55
2022/07/20 03:30:07;;;;;;;;;;;24.10;76.60;;;;;;5116526;28;20260;-53
2022/07/20 03:32:33;;;;;;;;;;;24.20;76.50;;;;;;5115697;28;20370;-54
2022/07/20 03:34:59;;;;;;;;;;;24.30;76.60;;;;;;5115447;28;19908;-51
2022/07/20 03:37:24;;;;;;;;;;;24.30;76.70;;;;;;5116018;28;20367;-47
2022/07/20 03:39:50;;;;;;;;;;;24.30;76.50;;;;;;5115559;28;19911;-53
2022/07/20 03:42:16;;;;;;;;;;;24.30;76.90;;;;;;5116312;28;19916;-49
2022/07/20 03:44:41;;;;;;;;;;;24.30;77.00;;;;;;5123302;27;19981;-53
2022/07/20 03:47:07;;;;;;;;;;;24.30;77.20;;;;;;5115975;28;19938;-49
2022/07/20 03:49:32;;;;;;;;;;;24.30;77.40;;;;;;5115584;28;19912;-49
2022/07/20 03:51:58;;;;;;;;;;;24.30;77.60;;;;;;5116099;28;20422;-53
2022/07/20 03:54:23;;;;;;;;;;;24.30;77.80;;;;;;5116295;28;20023;-56
2022/07/20 03:56:49;;;;;;;;;;;24.30;77.80;;;;;;5116348;28;20279;-54
2022/07/20 03:59:14;;;;;;;;;;;24.40;77.80;;;;;;5116035;28;20295;-48
2022/07/20 04:01:40;;;;;;;;;;;24.40;78.10;;;;;;5115689;28;20228;-54
2022/07/20 04:04:06;;;;;;;;;;;24.30;78.70;;;;;;5115182;28;19908;-54
2022/07/20 04:06:32;;;;;;;;;;;24.20;78.50;;;;;;5115527;28;19916;-49
2022/07/20 04:08:57;;;;;;;;;;;24.20;78.70;;;;;;5115783;28;19907;-52
2022/07/20 04:11:23;;;;;;;;;;;24.20;78.60;;;;;;5115649;28;19965;-55
2022/07/20 04:13:48;;;;;;;;;;;24.20;78.30;;;;;;5114912;28;19912;-55
2022/07/20 04:16:14;;;;;;;;;;;24.20;78.60;;;;;;5114701;28;19923;-56
2022/07/20 04:18:40;;;;;;;;;;;24.20;78.60;;;;;;5132748;27;19918;-49
2022/07/20 04:21:05;;;;;;;;;;;24.20;78.50;;;;;;5118626;27;20368;-49
2022/07/20 04:23:31;;;;;;;;;;;24.20;78.40;;;;;;5096886;28;20022;-53
2022/07/20 04:25:56;;;;;;;;;;;24.20;78.30;;;;;;5114964;28;19918;-51
2022/07/20 04:28:22;;;;;;;;;;;24.20;78.00;;;;;;5115553;28;19919;-50
2022/07/20 04:30:48;;;;;;;;;;;24.30;77.70;;;;;;5115089;28;19918;-51
2022/07/20 04:33:13;;;;;;;;;;;24.30;75.60;;;;;;5116213;28;19912;-50
2022/07/20 04:35:39;;;;;;;;;;;24.20;75.90;;;;;;5097353;28;19942;-50
2022/07/20 04:38:04;;;;;;;;;;;24.20;76.00;;;;;;5114877;28;19908;-52
2022/07/20 04:40:30;;;;;;;;;;;24.20;76.50;;;;;;5114541;28;20084;-49
2022/07/20 04:42:56;;;;;;;;;;;24.20;76.60;;;;;;5115046;27;19912;-50
2022/07/20 04:45:21;;;;;;;;;;;24.20;76.80;;;;;;5127604;27;19965;-49
2022/07/20 04:47:47;;;;;;;;;;;24.30;76.70;;;;;;5114588;28;20255;-52
2022/07/20 04:50:12;;;;;;;;;;;24.30;76.50;;;;;;5113916;28;19919;-48
2022/07/20 04:52:38;;;;;;;;;;;24.30;76.60;;;;;;5114284;28;19911;-50
2022/07/20 04:55:04;;;;;;;;;;;24.20;77.10;;;;;;5114574;28;20000;-53
2022/07/20 04:57:29;;;;;;;;;;;24.30;77.10;;;;;;5114347;28;20010;-50
2022/07/20 04:59:55;;;;;;;;;;;24.30;76.80;;;;;;5114384;28;19916;-55
2022/07/20 05:02:21;;;;;;;;;;;24.40;76.30;;;;;;5113524;28;19920;-51
2022/07/20 05:04:46;;;;;;;;;;;24.40;76.40;;;;;;5114408;28;19923;-55
2022/07/20 05:07:13;;;;;;;;;;;24.40;76.40;;;;;;5095623;28;20048;-51
2022/07/20 05:09:39;;;;;;;;;;;24.40;76.70;;;;;;5113830;28;19920;-55
2022/07/20 05:12:04;;;;;;;;;;;24.50;77.20;;;;;;5114140;28;20038;-53
2022/07/20 05:14:30;;;;;;;;;;;24.60;77.60;;;;;;5114464;28;19912;-47
2022/07/20 05:16:55;;;;;;;;;;;24.60;77.60;;;;;;5114017;28;19919;-53
2022/07/20 05:19:21;;;;;;;;;;;24.70;78.00;;;;;;5113795;28;19923;-52
2022/07/20 05:21:47;;;;;;;;;;;24.80;78.10;;;;;;5080041;28;20271;-49
2022/07/20 05:24:12;;;;;;;;;;;25.00;77.60;;;;;;5113134;28;19919;-50
2022/07/20 05:26:38;;;;;;;;;;;25.00;76.80;;;;;;5113888;28;19912;-52
2022/07/20 05:29:03;;;;;;;;;;;25.10;76.00;;;;;;5095870;28;19916;-52
2022/07/20 05:31:29;;;;;;;;;;;25.20;75.70;;;;;;5114067;28;19951;-50
2022/07/20 05:33:54;;;;;;;;;;;25.30;75.10;;;;;;5113305;28;19951;-52
2022/07/20 05:36:20;;;;;;;;;;;25.40;74.80;;;;;;5113485;28;19965;-53
2022/07/20 05:38:45;;;;;;;;;;;25.50;74.50;;;;;;5113328;28;20374;-49
2022/07/20 05:41:11;;;;;;;;;;;25.50;73.10;;;;;;5095944;28;19943;-53
2022/07/20 05:43:36;;;;;;;;;;;25.60;72.80;;;;;;5119727;27;19947;-55
2022/07/20 05:46:02;;;;;;;;;;;25.60;72.60;;;;;;5134451;27;19954;-53
2022/07/20 05:48:29;;;;;;;;;;;25.70;72.30;;;;;;5124496;27;19919;-57
2022/07/20 05:50:55;;;;;;;;;;;25.80;72.00;;;;;;5113709;28;19919;-54
2022/07/20 05:53:20;;;;;;;;;;;25.80;71.60;;;;;;5113435;28;20295;-51
2022/07/20 05:55:46;;;;;;;;;;;26.00;71.60;;;;;;5113385;28;19912;-50
2022/07/20 05:58:11;;;;;;;;;;;26.10;72.10;;;;;;5112799;28;19916;-53
2022/07/20 06:00:37;;;;;;;;;;;26.00;70.10;;;;;;5113048;28;19916;-51
2022/07/20 06:03:03;;;;;;;;;;;26.10;69.60;;;;;;5113678;28;20275;-55
2022/07/20 06:05:29;;;;;;;;;;;26.20;68.70;;;;;;5113263;28;19908;-53
2022/07/20 06:07:55;;;;;;;;;;;26.30;67.50;;;;;;5112914;28;19911;-55
2022/07/20 06:10:21;;;;;;;;;;;26.40;66.60;;;;;;5112895;28;20097;-54
2022/07/20 06:12:47;;;;;;;;;;;26.50;66.00;;;;;;5112471;28;19919;-55
2022/07/20 06:15:12;;;;;;;;;;;26.60;65.60;;;;;;5112874;28;20280;-48
2022/07/20 06:17:39;;;;;;;;;;;26.70;65.30;;;;;;5094930;28;20365;-51
2022/07/20 06:20:05;;;;;;;;;;;26.80;65.00;;;;;;5113426;28;19994;-48
2022/07/20 06:22:31;;;;;;;;;;;26.90;65.10;;;;;;5113256;28;19970;-53
2022/07/20 06:24:57;;;;;;;;;;;27.00;65.30;;;;;;5113821;28;19908;-55
2022/07/20 06:27:23;;;;;;;;;;;27.00;65.30;;;;;;5098298;28;19911;-50
2022/07/20 06:29:48;;;;;;;;;;;27.10;65.40;;;;;;5118401;28;19994;-53
2022/07/20 06:32:14;;;;;;;;;;;27.20;65.30;;;;;;5117096;28;19916;-51
2022/07/20 06:34:39;;;;;;;;;;;27.20;65.50;;;;;;5117262;28;19912;-53
2022/07/20 06:37:05;;;;;;;;;;;27.30;65.20;;;;;;5116794;28;19961;-51
2022/07/20 06:39:30;;;;;;;;;;;27.40;65.10;;;;;;5116638;28;20486;-50
2022/07/20 06:41:56;;;;;;;;;;;27.50;65.20;;;;;;5098999;28;20002;-51
2022/07/20 06:44:21;;;;;;;;;;;27.60;64.80;;;;;;5129196;27;19959;-48
2022/07/20 06:46:47;;;;;;;;;;;27.50;64.30;;;;;;5096923;28;19919;-50
2022/07/20 06:49:14;;;;;;;;;;;27.50;64.40;;;;;;5096957;28;19912;-51
2022/07/20 06:51:40;;;;;;;;;;;27.70;64.20;;;;;;5115585;28;19916;-54
2022/07/20 06:54:05;;;;;;;;;;;27.70;64.10;;;;;;5116919;28;20117;-50
2022/07/20 06:56:31;;;;;;;;;;;27.80;64.00;;;;;;5116444;28;19959;-54
2022/07/20 06:58:56;;;;;;;;;;;27.90;63.50;;;;;;5115890;28;20027;-54
2022/07/20 07:01:22;;;;;;;;;;;27.90;63.10;;;;;;5116078;28;20003;-48
2022/07/20 07:03:47;;;;;;;;;;;28.10;63.40;;;;;;5117228;28;20371;-49
2022/07/20 07:06:13;;;;;;;;;;;28.10;62.80;;;;;;5115901;28;19916;-55
2022/07/20 07:08:38;;;;;;;;;;;28.20;62.60;;;;;;5116693;28;19972;-55
2022/07/20 07:11:04;;;;;;;;;;;28.40;62.50;;;;;;5116878;28;20344;-48
2022/07/20 07:13:30;;;;;;;;;;;28.50;62.10;;;;;;5116774;28;20002;-49
2022/07/20 07:15:55;;;;;;;;;;;28.50;61.70;;;;;;5116421;28;19915;-52
2022/07/20 07:18:21;;;;;;;;;;;28.70;62.20;;;;;;5116053;28;19998;-54
2022/07/20 07:20:46;;;;;;;;;;;28.70;61.10;;;;;;5115825;28;19911;-49
2022/07/20 07:23:12;;;;;;;;;;;28.80;60.80;;;;;;5116444;28;19965;-49
2022/07/20 07:25:37;;;;;;;;;;;28.90;60.40;;;;;;5098274;28;19916;-50
2022/07/20 07:28:03;;;;;;;;;;;29.00;60.20;;;;;;5116051;28;19912;-53
2022/07/20 07:30:28;;;;;;;;;;;29.10;59.60;;;;;;5116194;28;19912;-50
2022/07/20 07:32:54;;;;;;;;;;;29.20;59.00;;;;;;5116772;28;20367;-50
2022/07/20 07:35:22;;;;;;;;;;;29.40;59.00;;;;;;5116679;28;19965;-53
2022/07/20 07:37:48;;;;;;;;;;;29.40;58.50;;;;;;5114741;28;19957;-51
2022/07/20 07:40:13;;;;;;;;;;;29.50;58.30;;;;;;5097907;28;19912;-52
2022/07/20 07:42:39;;;;;;;;;;;29.60;58.00;;;;;;5115549;28;19916;-50
2022/07/20 07:45:07;;;;;;;;;;;29.60;58.00;;;;;;5122632;27;19919;-53
2022/07/20 07:47:33;;;;;;;;;;;29.70;57.90;;;;;;5116304;28;20002;-58
2022/07/20 07:49:59;;;;;;;;;;;29.80;57.90;;;;;;5116465;28;19912;-54
2022/07/20 07:52:25;;;;;;;;;;;29.90;57.70;;;;;;5116190;28;19918;-54
2022/07/20 07:54:50;;;;;;;;;;;29.80;56.30;;;;;;5097564;28;20334;-54
2022/07/20 07:57:16;;;;;;;;;;;29.90;56.20;;;;;;5115644;28;19916;-52
2022/07/20 07:59:42;;;;;;;;;;;29.90;55.50;;;;;;5114570;28;19907;-51
2022/07/20 08:02:08;;;;;;;;;;;30.00;55.30;;;;;;5115481;28;19915;-50
2022/07/20 08:04:34;;;;;;;;;;;30.10;55.40;;;;;;5115011;28;19955;-48
2022/07/20 08:06:59;;;;;;;;;;;30.10;55.50;;;;;;5115095;28;19919;-50
2022/07/20 08:09:25;;;;;;;;;;;30.10;55.60;;;;;;5115274;28;19919;-52
2022/07/20 08:11:51;;;;;;;;;;;30.20;55.20;;;;;;5114392;28;19953;-51
2022/07/20 08:14:16;;;;;;;;;;;30.20;55.10;;;;;;5115523;28;19912;-56
2022/07/20 08:16:42;;;;;;;;;;;30.40;54.60;;;;;;5114935;28;20512;-50
2022/07/20 08:19:08;;;;;;;;;;;30.60;54.60;;;;;;5114822;28;19968;-50
2022/07/20 08:21:33;;;;;;;;;;;30.70;54.60;;;;;;5114069;28;19916;-54
2022/07/20 08:23:59;;;;;;;;;;;30.70;54.50;;;;;;5115150;28;19963;-53
2022/07/20 08:26:24;;;;;;;;;;;30.70;54.60;;;;;;5114530;28;20287;-49
2022/07/20 08:28:50;;;;;;;;;;;30.80;54.70;;;;;;5114885;28;19961;-52
2022/07/20 08:31:15;;;;;;;;;;;30.90;54.90;;;;;;5115056;28;19916;-55
2022/07/20 08:33:41;;;;;;;;;;;30.90;54.80;;;;;;5114624;28;20390;-48
2022/07/20 08:36:06;;;;;;;;;;;31.00;54.90;;;;;;5114188;28;20513;-54
2022/07/20 08:38:32;;;;;;;;;;;31.10;54.80;;;;;;5113716;28;19923;-54
2022/07/20 08:40:57;;;;;;;;;;;31.10;54.60;;;;;;5114027;28;19916;-50
2022/07/20 08:43:23;;;;;;;;;;;31.10;54.20;;;;;;5118292;27;19915;-52
2022/07/20 08:45:49;;;;;;;;;;;31.20;54.00;;;;;;5134866;27;19917;-48
2022/07/20 08:48:18;;;;;;;;;;;31.30;53.80;;;;;;5118314;27;19983;-50
2022/07/20 08:50:44;;;;;;;;;;;31.40;53.70;;;;;;5113803;28;20258;-51
2022/07/20 08:53:09;;;;;;;;;;;31.40;53.00;;;;;;5113748;28;20001;-50
2022/07/20 08:55:35;;;;;;;;;;;31.40;52.80;;;;;;5113986;28;19928;-49
2022/07/20 08:58:01;;;;;;;;;;;31.60;53.00;;;;;;5113569;28;19922;-58
2022/07/20 09:00:26;;;;;;;;;;;31.70;52.80;;;;;;5095013;28;19916;-53
2022/07/20 09:02:55;;;;;;;;;;;31.70;52.70;;;;;;5113655;28;20166;-52
2022/07/20 09:05:21;;;;;;;;;;;31.90;52.60;;;;;;5113406;28;19911;-52
2022/07/20 09:07:48;;;;;;;;;;;32.10;52.60;;;;;;5114139;28;19954;-52
2022/07/20 09:10:15;;;;;;;;;;;32.20;51.90;;;;;;5094982;28;20000;-53
2022/07/20 09:12:55;;;;;;;;;;;32.20;52.00;;;;;;5114113;28;20002;-52
2022/07/20 09:15:27;;;;;;;;;;;32.20;52.00;;;;;;5113269;28;20359;-56
2022/07/20 09:18:02;;;;;;;;;;;32.30;51.80;;;;;;5112954;28;19931;-52
2022/07/20 09:20:29;;;;;;;;;;;32.20;51.70;;;;;;5113005;28;20530;-49
2022/07/20 09:22:59;;;;;;;;;;;32.50;51.60;;;;;;5113938;28;19915;-55
2022/07/20 09:25:25;;;;;;;;;;;32.50;50.90;;;;;;5113846;28;20006;-53
2022/07/20 09:27:50;;;;;;;;;;;32.40;51.30;;;;;;5113137;28;19955;-52
2022/07/20 09:30:18;;;;;;;;;;;32.50;51.30;;;;;;5094666;28;20198;-51
2022/07/20 09:32:50;;;;;;;;;;;32.70;51.00;;;;;;5113727;28;19908;-52
2022/07/20 09:35:16;;;;;;;;;;;32.90;50.40;;;;;;5113107;28;19922;-53
2022/07/20 09:37:41;;;;;;;;;;;33.00;50.10;;;;;;5113673;28;19920;-49
2022/07/20 09:40:07;;;;;;;;;;;33.00;49.90;;;;;;5112546;28;19916;-53
2022/07/20 09:42:37;;;;;;;;;;;33.20;49.90;;;;;;5114475;28;19935;-54
2022/07/20 09:45:22;;;;;;;;;;;33.20;49.60;;;;;;5117682;27;20010;-48
2022/07/20 09:48:03;;;;;;;;;;;33.20;50.00;;;;;;5114307;28;19927;-53
2022/07/20 09:50:29;;;;;;;;;;;33.30;49.20;;;;;;5112677;28;20356;-50
2022/07/20 09:52:56;;;;;;;;;;;33.40;49.60;;;;;;5112964;28;19919;-49
2022/07/20 09:55:22;;;;;;;;;;;33.50;49.60;;;;;;5112730;28;19950;-55
2022/07/20 09:57:49;;;;;;;;;;;33.40;48.80;;;;;;5111789;28;20384;-54
2022/07/20 10:00:15;;;;;;;;;;;33.40;49.10;;;;;;5112484;28;19955;-52
2022/07/20 10:02:41;;;;;;;;;;;33.60;49.20;;;;;;5112546;28;19965;-59
2022/07/20 10:05:07;;;;;;;;;;;33.80;49.10;;;;;;5112642;28;19912;-58
2022/07/20 10:07:33;;;;;;;;;;;33.90;49.10;;;;;;5113023;28;19962;-59
2022/07/20 10:09:59;;;;;;;;;;;33.90;48.20;;;;;;5113062;28;19923;-53
2022/07/20 10:12:25;;;;;;;;;;;33.90;47.90;;;;;;5112320;28;20431;-54
2022/07/20 10:14:51;;;;;;;;;;;34.00;47.50;;;;;;5110792;28;19947;-57
2022/07/20 10:17:17;;;;;;;;;;;34.00;47.40;;;;;;5114918;28;19916;-56
2022/07/20 10:19:46;;;;;;;;;;;34.00;47.10;;;;;;5106707;28;19907;-53
2022/07/20 10:22:12;;;;;;;;;;;34.20;46.70;;;;;;5112991;28;20370;-59
2022/07/20 10:24:39;;;;;;;;;;;34.10;46.50;;;;;;5112119;28;19954;-56
2022/07/20 10:27:07;;;;;;;;;;;34.20;46.90;;;;;;5111505;28;20380;-59
2022/07/20 10:29:40;;;;;;;;;;;34.40;47.30;;;;;;5101862;28;19916;-55
2022/07/20 10:32:09;;;;;;;;;;;34.40;47.60;;;;;;5096239;28;20003;-54
2022/07/20 10:34:39;;;;;;;;;;;34.50;47.40;;;;;;5113057;28;19908;-54
2022/07/20 10:37:23;;;;;;;;;;;34.40;47.00;;;;;;5111960;28;19916;-52
2022/07/20 10:39:49;;;;;;;;;;;34.30;47.20;;;;;;5112500;28;19908;-58
2022/07/20 10:42:22;;;;;;;;;;;34.40;47.40;;;;;;5093861;28;19956;-59
2022/07/20 10:44:47;;;;;;;;;;;34.60;47.10;;;;;;5126432;28;19952;-56
2022/07/20 10:47:31;;;;;;;;;;;34.70;47.50;;;;;;5094153;28;19912;-56
2022/07/20 10:50:01;;;;;;;;;;;34.70;46.10;;;;;;5112770;28;19908;-58
2022/07/20 10:52:28;;;;;;;;;;;34.60;46.10;;;;;;5112539;28;19967;-55
2022/07/20 10:54:54;;;;;;;;;;;34.50;46.50;;;;;;5112930;28;20294;-57
2022/07/20 10:57:20;;;;;;;;;;;34.60;46.60;;;;;;5111763;28;19911;-53
2022/07/20 10:59:46;;;;;;;;;;;34.60;46.70;;;;;;5112377;28;19919;-54
2022/07/20 11:02:12;;;;;;;;;;;34.60;46.70;;;;;;5111094;28;19911;-56
2022/07/20 11:04:44;;;;;;;;;;;34.60;45.80;;;;;;5109918;28;19912;-56
2022/07/20 11:07:26;;;;;;;;;;;34.70;45.30;;;;;;5093166;28;19911;-57
2022/07/20 11:09:52;;;;;;;;;;;34.90;45.50;;;;;;5111063;28;19919;-53
2022/07/20 11:12:24;;;;;;;;;;;35.00;45.40;;;;;;5112180;28;19916;-55
2022/07/20 11:14:51;;;;;;;;;;;34.60;45.50;;;;;;5114920;28;19961;-59
2022/07/20 11:17:16;;;;;;;;;;;34.60;45.20;;;;;;5114928;28;19920;-51
2022/07/20 11:19:42;;;;;;;;;;;34.70;45.40;;;;;;5116166;28;20244;-54
2022/07/20 11:22:08;;;;;;;;;;;34.50;44.10;;;;;;5116012;28;19998;-53
2022/07/20 11:24:34;;;;;;;;;;;34.50;44.40;;;;;;5116189;28;19949;-56
2022/07/20 11:27:12;;;;;;;;;;;34.70;44.80;;;;;;5116101;28;19924;-58
2022/07/20 11:29:45;;;;;;;;;;;34.80;45.00;;;;;;5115400;28;19908;-58
2022/07/20 11:32:10;;;;;;;;;;;35.00;45.40;;;;;;5115646;28;19974;-54
2022/07/20 11:34:46;;;;;;;;;;;35.00;45.40;;;;;;5115325;28;19912;-57
2022/07/20 11:37:14;;;;;;;;;;;35.10;44.30;;;;;;5115514;28;19912;-58
2022/07/20 11:39:39;;;;;;;;;;;35.00;43.40;;;;;;5116216;28;19943;-53
2022/07/20 11:42:12;;;;;;;;;;;35.00;44.10;;;;;;5115732;28;19919;-55
2022/07/20 11:44:38;;;;;;;;;;;35.00;44.20;;;;;;5131085;27;19923;-56
2022/07/20 11:47:04;;;;;;;;;;;35.00;44.50;;;;;;5130977;27;20250;-55
2022/07/20 11:49:30;;;;;;;;;;;35.20;44.00;;;;;;5105498;28;19920;-54
2022/07/20 11:51:57;;;;;;;;;;;35.10;44.40;;;;;;5100697;28;20441;-56
2022/07/20 11:54:24;;;;;;;;;;;35.20;44.80;;;;;;5094845;28;20397;-54
2022/07/20 11:56:51;;;;;;;;;;;35.20;44.70;;;;;;5094362;28;20367;-58
2022/07/20 11:59:17;;;;;;;;;;;35.20;44.80;;;;;;5096692;28;19912;-58
2022/07/20 12:01:42;;;;;;;;;;;35.10;44.70;;;;;;5097454;28;19912;-56
2022/07/20 12:04:09;;;;;;;;;;;35.10;44.60;;;;;;5077740;28;19912;-56
2022/07/20 12:06:36;;;;;;;;;;;35.20;44.70;;;;;;5095722;28;19908;-57
2022/07/20 12:09:05;;;;;;;;;;;35.30;44.80;;;;;;5099683;28;19929;-57
2022/07/20 12:11:30;;;;;;;;;;;35.50;44.90;;;;;;5111462;28;19912;-54
2022/07/20 12:13:57;;;;;;;;;;;35.70;44.90;;;;;;5115899;28;19930;-54
2022/07/20 12:16:23;;;;;;;;;;;35.80;44.80;;;;;;5113775;28;19916;-56
2022/07/20 12:18:53;;;;;;;;;;;35.80;44.20;;;;;;5113247;28;19915;-52
2022/07/20 12:21:24;;;;;;;;;;;35.70;43.30;;;;;;5112644;28;19969;-61
2022/07/20 12:23:51;;;;;;;;;;;35.70;43.00;;;;;;5094979;28;19916;-59
2022/07/20 12:26:21;;;;;;;;;;;35.60;43.40;;;;;;5114664;28;20004;-60
2022/07/20 12:28:46;;;;;;;;;;;35.70;43.50;;;;;;5114529;28;19908;-64
2022/07/20 12:31:16;;;;;;;;;;;35.80;43.70;;;;;;5116870;28;20018;-64
2022/07/20 12:34:00;;;;;;;;;;;35.70;44.00;;;;;;5116349;28;20363;-59
2022/07/20 12:36:34;;;;;;;;;;;35.90;43.90;;;;;;5097876;28;20382;-58
2022/07/20 12:38:59;;;;;;;;;;;36.00;44.20;;;;;;5115347;28;19973;-58
2022/07/20 12:41:25;;;;;;;;;;;36.10;44.30;;;;;;5115553;28;19972;-61
2022/07/20 12:43:51;;;;;;;;;;;36.20;43.80;;;;;;5115153;27;20006;-60
2022/07/20 12:46:16;;;;;;;;;;;36.30;43.50;;;;;;5096616;28;19916;-62
2022/07/20 12:48:43;;;;;;;;;;;36.40;43.60;;;;;;5096478;28;19914;-60
2022/07/20 12:51:10;;;;;;;;;;;36.50;43.70;;;;;;5112013;28;19951;-59
2022/07/20 12:53:36;;;;;;;;;;;36.60;43.40;;;;;;5114147;28;19907;-60
2022/07/20 12:56:03;;;;;;;;;;;36.60;42.70;;;;;;5114425;28;20022;-60
2022/07/20 12:58:28;;;;;;;;;;;36.60;42.50;;;;;;5113885;28;19908;-59
2022/07/20 13:00:54;;;;;;;;;;;36.80;42.50;;;;;;5113850;28;20311;-60
2022/07/20 13:03:19;;;;;;;;;;;36.80;42.40;;;;;;5114064;28;19947;-59
2022/07/20 13:05:45;;;;;;;;;;;36.80;42.50;;;;;;5113070;28;19919;-58
2022/07/20 13:08:10;;;;;;;;;;;36.80;42.50;;;;;;5113966;28;20372;-59
2022/07/20 13:10:36;;;;;;;;;;;36.70;42.60;;;;;;5112250;28;19908;-60
2022/07/20 13:13:02;;;;;;;;;;;36.90;43.00;;;;;;5112115;28;19927;-60
2022/07/20 13:15:27;;;;;;;;;;;37.10;43.20;;;;;;5110694;28;20002;-60
2022/07/20 13:17:53;;;;;;;;;;;37.30;43.30;;;;;;5110109;28;19920;-57
2022/07/20 13:20:18;;;;;;;;;;;37.40;42.90;;;;;;5111473;28;19942;-60
2022/07/20 13:22:44;;;;;;;;;;;37.50;42.60;;;;;;5112320;28;19920;-60
2022/07/20 13:25:10;;;;;;;;;;;37.40;43.00;;;;;;5094106;28;19912;-58
2022/07/20 13:27:35;;;;;;;;;;;37.40;42.70;;;;;;5114074;28;19911;-59
2022/07/20 13:30:01;;;;;;;;;;;37.50;43.10;;;;;;5113891;28;19919;-54
2022/07/20 13:32:27;;;;;;;;;;;37.60;42.80;;;;;;5114096;28;20000;-59
2022/07/20 13:34:52;;;;;;;;;;;37.40;42.40;;;;;;5114283;28;19916;-56
2022/07/20 13:37:18;;;;;;;;;;;37.40;42.40;;;;;;5113316;28;19915;-56
2022/07/20 13:39:43;;;;;;;;;;;37.40;42.60;;;;;;5096099;28;20367;-53
2022/07/20 13:42:09;;;;;;;;;;;37.60;42.70;;;;;;5095719;28;19953;-54
2022/07/20 13:44:35;;;;;;;;;;;37.80;42.50;;;;;;5128366;27;19912;-59
2022/07/20 13:47:01;;;;;;;;;;;38.00;42.10;;;;;;5133623;27;19907;-54
2022/07/20 13:49:29;;;;;;;;;;;38.10;42.50;;;;;;5116575;27;20434;-56
2022/07/20 13:51:55;;;;;;;;;;;38.20;42.20;;;;;;5118731;27;19947;-51
2022/07/20 13:54:21;;;;;;;;;;;38.50;42.00;;;;;;5113552;28;19907;-57
2022/07/20 13:56:46;;;;;;;;;;;38.50;41.70;;;;;;5112999;28;19999;-58
2022/07/20 13:59:12;;;;;;;;;;;38.60;41.30;;;;;;5113030;28;20022;-60
2022/07/20 14:01:43;;;;;;;;;;;38.60;41.60;;;;;;5113742;28;19916;-60
2022/07/20 14:04:10;;;;;;;;;;;38.80;40.40;;;;;;5113388;28;19996;-60
2022/07/20 14:06:36;;;;;;;;;;;39.00;40.60;;;;;;5112893;28;20022;-60
2022/07/20 14:09:02;;;;;;;;;;;39.10;40.80;;;;;;5113336;28;19974;-60
2022/07/20 14:11:27;;;;;;;;;;;39.30;40.30;;;;;;5114837;28;20294;-60
2022/07/20 14:13:53;;;;;;;;;;;39.40;40.10;;;;;;5114207;28;19912;-55